地図

経路データ

SID SEASON NUMBER BASIN SUBBASIN NAME ISO_TIME NATURE LAT LON WMO_WIND WMO_PRES WMO_AGENCY TRACK_TYPE DIST2LAND LANDFALL IFLAG USA_AGENCY USA_ATCF_ID USA_LAT USA_LON USA_RECORD USA_STATUS USA_WIND USA_PRES USA_SSHS USA_R34_NE USA_R34_SE USA_R34_SW USA_R34_NW USA_R50_NE USA_R50_SE USA_R50_SW USA_R50_NW USA_R64_NE USA_R64_SE USA_R64_SW USA_R64_NW USA_POCI USA_ROCI USA_RMW USA_EYE TOKYO_LAT TOKYO_LON TOKYO_GRADE TOKYO_WIND TOKYO_PRES TOKYO_R50_DIR TOKYO_R50_LONG TOKYO_R50_SHORT TOKYO_R30_DIR TOKYO_R30_LONG TOKYO_R30_SHORT TOKYO_LAND CMA_LAT CMA_LON CMA_CAT CMA_WIND CMA_PRES HKO_LAT HKO_LON HKO_CAT HKO_WIND HKO_PRES NEWDELHI_LAT NEWDELHI_LON NEWDELHI_GRADE NEWDELHI_WIND NEWDELHI_PRES NEWDELHI_CI NEWDELHI_DP NEWDELHI_POCI REUNION_LAT REUNION_LON REUNION_TYPE REUNION_WIND REUNION_PRES REUNION_TNUM REUNION_CI REUNION_RMW REUNION_R34_NE REUNION_R34_SE REUNION_R34_SW REUNION_R34_NW REUNION_R50_NE REUNION_R50_SE REUNION_R50_SW REUNION_R50_NW REUNION_R64_NE REUNION_R64_SE REUNION_R64_SW REUNION_R64_NW BOM_LAT BOM_LON BOM_TYPE BOM_WIND BOM_PRES BOM_TNUM BOM_CI BOM_RMW BOM_R34_NE BOM_R34_SE BOM_R34_SW BOM_R34_NW BOM_R50_NE BOM_R50_SE BOM_R50_SW BOM_R50_NW BOM_R64_NE BOM_R64_SE BOM_R64_SW BOM_R64_NW BOM_ROCI BOM_POCI BOM_EYE BOM_POS_METHOD BOM_PRES_METHOD NADI_LAT NADI_LON NADI_CAT NADI_WIND NADI_PRES WELLINGTON_LAT WELLINGTON_LON WELLINGTON_WIND WELLINGTON_PRES DS824_LAT DS824_LON DS824_STAGE DS824_WIND DS824_PRES TD9636_LAT TD9636_LON TD9636_STAGE TD9636_WIND TD9636_PRES TD9635_LAT TD9635_LON TD9635_WIND TD9635_PRES TD9635_ROCI NEUMANN_LAT NEUMANN_LON NEUMANN_CLASS NEUMANN_WIND NEUMANN_PRES MLC_LAT MLC_LON MLC_CLASS MLC_WIND MLC_PRES USA_GUST BOM_GUST BOM_GUST_PER REUNION_GUST REUNION_GUST_PER USA_SEAHGT USA_SEARAD_NE USA_SEARAD_SE USA_SEARAD_SW USA_SEARAD_NW STORM_SPEED STORM_DIR
1946358S12180 1947 79 SP MM NOT_NAMED 1946-12-24 00:00:00 TS -11.7000 -179.700 main 505 495 O________OO___ jtwc_sh SH041947 -11.7000 -179.700 -1 -11.7000 180.300 TC -11.7000 -179.700 2 7 117
1946358S12180 1947 79 SP MM NOT_NAMED 1946-12-24 03:00:00 TS -11.8511 -179.399 main 487 480 P________PP___ SH041947 -11.8475 -179.413 -1 -11.8475 -179.413 TC -11.8582 -179.371 2 7 117
1946358S12180 1947 79 SP MM NOT_NAMED 1946-12-24 06:00:00 TS -12.0043 -179.081 main 482 469 O________OP___ jtwc_sh SH041947 -12.0000 -179.100 -1 -12.0000 180.900 TC -12.0129 -179.043 2 7 116
1946358S12180 1947 79 SP MM NOT_NAMED 1946-12-24 09:00:00 TS -12.1587 -178.740 main 472 469 P________PP___ SH041947 -12.1575 -178.750 -1 -12.1575 -178.750 TC -12.1612 -178.719 2 7 114
1946358S12180 1947 79 SP MM NOT_NAMED 1946-12-24 12:00:00 TS -12.3000 -178.400 main 473 467 O________OO___ jtwc_sh SH041947 -12.3000 -178.400 -1 -12.3000 181.600 TC -12.3000 -178.400 2 7 112
1946358S12180 1947 79 SP MM NOT_NAMED 1946-12-24 15:00:00 TS -12.4092 -178.096 main 476 472 P________PP___ SH041947 -12.3999 -178.100 -1 -12.3999 -178.100 TC -12.4279 -178.087 2 6 110
1946358S12180 1947 79 SP MM NOT_NAMED 1946-12-24 18:00:00 TS -12.5166 -177.791 main 482 478 O________OP___ jtwc_sh SH041947 -12.5000 -177.800 -1 -12.5000 182.200 TC -12.5497 -177.772 2 7 111
1946358S12180 1947 79 SP MM NOT_NAMED 1946-12-24 21:00:00 TS -12.6522 -177.459 main 481 472 P________PP___ SH041947 -12.6425 -177.465 -1 -12.6425 -177.465 TC -12.6716 -177.446 2 7 113
1946358S12180 1947 79 SP MM NOT_NAMED 1946-12-25 00:00:00 TS -12.8000 -177.100 main 472 427 O________OO___ jtwc_sh SH041947 -12.8000 -177.100 -1 -12.8000 182.900 TC -12.8000 -177.100 2 8 112
1946358S12180 1947 79 SP MM NOT_NAMED 1946-12-25 03:00:00 TS -12.9476 -176.709 main 427 381 P________PP___ SH041947 -12.9500 -176.707 -1 -12.9500 -176.707 TC -12.9429 -176.713 2 8 111
1946358S12180 1947 79 SP MM NOT_NAMED 1946-12-25 06:00:00 TS -13.0975 -176.303 main 381 337 O________OP___ jtwc_sh SH041947 -13.1000 -176.300 -1 -13.1000 183.700 TC -13.0926 -176.308 2 9 111
1946358S12180 1947 79 SP MM NOT_NAMED 1946-12-25 09:00:00 TS -13.2486 -175.894 main 337 292 P________PP___ SH041947 -13.2500 -175.892 -1 -13.2500 -175.892 TC -13.2460 -175.898 2 8 111
1946358S12180 1947 79 SP MM NOT_NAMED 1946-12-25 12:00:00 TS -13.4000 -175.500 main 292 259 O________OO___ jtwc_sh SH041947 -13.4000 -175.500 -1 -13.4000 184.500 TC -13.4000 -175.500 2 8 112
1946358S12180 1947 79 SP MM NOT_NAMED 1946-12-25 15:00:00 TS -13.5485 -175.139 main 248 217 P________PP___ SH041947 -13.5499 -175.142 -1 -13.5499 -175.142 TC -13.5457 -175.131 2 8 113
1946358S12180 1947 79 SP MM NOT_NAMED 1946-12-25 18:00:00 TS -13.6974 -174.792 main 217 186 O________OP___ jtwc_sh SH041947 -13.7000 -174.800 -1 -13.7000 185.200 TC -13.6922 -174.777 2 7 114
1946358S12180 1947 79 SP MM NOT_NAMED 1946-12-25 21:00:00 TS -13.8475 -174.440 main 176 151 P________PP___ SH041947 -13.8500 -174.442 -1 -13.8500 -174.442 TC -13.8426 -174.435 2 7 114
1946358S12180 1947 79 SP MM NOT_NAMED 1946-12-26 00:00:00 TS -14.0000 -174.100 main 151 127 O________OO___ jtwc_sh SH041947 -14.0000 -174.100 -1 -14.0000 185.900 TC -14.0000 -174.100 2 7 116
1946358S12180 1947 79 SP MM NOT_NAMED 1946-12-26 03:00:00 TS -14.1522 -173.789 main 133 112 P________PP___ SH041947 -14.1424 -173.800 -1 -14.1424 -173.800 TC -14.1717 -173.768 2 7 118
1946358S12180 1947 79 SP MM NOT_NAMED 1946-12-26 06:00:00 TS -14.3166 -173.481 main 112 101 O________OP___ jtwc_sh SH041947 -14.3000 -173.500 -1 -14.3000 186.500 TC -14.3498 -173.442 2 7 120
1946358S12180 1947 79 SP MM NOT_NAMED 1946-12-26 09:00:00 TS -14.5143 -173.140 main 95 95 P________PP___ SH041947 -14.5075 -173.150 -1 -14.5075 -173.150 TC -14.5280 -173.121 2 8 120
1946358S12180 1947 79 SP MM NOT_NAMED 1946-12-26 12:00:00 TS -14.7000 -172.800 main 103 101 O________OO___ jtwc_sh SH041947 -14.7000 -172.800 -1 -14.7000 187.200 TC -14.7000 -172.800 2 7 114
1946358S12180 1947 79 SP MM NOT_NAMED 1946-12-26 15:00:00 TS -14.7906 -172.486 main 111 111 P________PP___ SH041947 -14.7999 -172.500 -1 -14.7999 -172.500 TC -14.7719 -172.458 2 6 107
1946358S12180 1947 79 SP MM NOT_NAMED 1946-12-26 18:00:00 TS -14.8834 -172.173 main 123 123 O________OP___ jtwc_sh SH041947 -14.9000 -172.200 -1 -14.9000 187.800 TC -14.8501 -172.119 2 7 110
1946358S12180 1947 79 SP MM NOT_NAMED 1946-12-26 21:00:00 TS -15.0228 -171.827 main 141 141 P________PP___ SH041947 -15.0325 -171.842 -1 -15.0325 -171.842 TC -15.0032 -171.795 2 8 123
1946358S12180 1947 79 SP MM NOT_NAMED 1946-12-27 00:00:00 TS -15.3000 -171.500 main 184 184 O________OO___ jtwc_sh SH041947 -15.3000 -171.500 -1 -15.3000 188.500 TC -15.3000 -171.500 2 10 143
1946358S12180 1947 79 SP MM NOT_NAMED 1946-12-27 03:00:00 TS -15.7773 -171.230 main 248 248 P________PP___ SH041947 -15.7600 -171.227 -1 -15.7600 -171.227 TC -15.8119 -171.234 2 12 157
1946358S12180 1947 79 SP MM NOT_NAMED 1946-12-27 06:00:00 TS -16.4234 -170.999 main 318 318 O________OP___ jtwc_sh SH041947 -16.4000 -171.000 -1 -16.4000 189.000 TC -16.4701 -170.998 2 15 163
1946358S12180 1947 79 SP MM NOT_NAMED 1946-12-27 09:00:00 TS -17.1861 -170.786 main 409 409 P________PP___ SH041947 -17.1700 -170.785 -1 -17.1700 -170.785 TC -17.2182 -170.787 2 16 166
1946358S12180 1947 79 SP MM NOT_NAMED 1946-12-27 12:00:00 TS -18.0000 -170.600 main 500 500 O________OO___ jtwc_sh SH041947 -18.0000 -170.600 -1 -18.0000 189.400 TC -18.0000 -170.600 2 16 169
1946358S12180 1947 79 SP MM NOT_NAMED 1946-12-27 15:00:00 TS -18.7490 -170.452 main 577 577 P________PP___ SH041947 -18.7575 -170.442 -1 -18.7575 -170.442 TC -18.7320 -170.471 2 15 170
1946358S12180 1947 79 SP MM NOT_NAMED 1946-12-27 18:00:00 TS -19.4947 -170.319 main 669 669 O________OP___ jtwc_sh SH041947 -19.5000 -170.300 -1 -19.5000 189.700 TC -19.4842 -170.357 2 15 171
1946358S12180 1947 79 SP MM NOT_NAMED 1946-12-27 21:00:00 TS -20.2480 -170.191 main 747 747 P________PP___ SH041947 -20.2499 -170.179 -1 -20.2499 -170.179 TC -20.2444 -170.214 2 15 169
1946358S12180 1947 79 SP MM NOT_NAMED 1946-12-28 00:00:00 TS -21.0000 -170.000 main 838 838 O________OO___ jtwc_sh SH041947 -21.0000 -170.000 -1 -21.0000 190.000 TC -21.0000 -170.000 2 16 163
1946358S12180 1947 79 SP MM NOT_NAMED 1946-12-28 03:00:00 TS -21.7544 -169.694 main 933 933 P________PP___ SH041947 -21.7574 -169.702 -1 -21.7574 -169.702 TC -21.7483 -169.678 2 16 156
1946358S12180 1947 79 SP MM NOT_NAMED 1946-12-28 06:00:00 TS -22.4957 -169.292 main 1020 1020 O________OP___ jtwc_sh SH041947 -22.5000 -169.300 -1 -22.5000 190.700 TC -22.4872 -169.277 2 17 151
1946358S12180 1947 79 SP MM NOT_NAMED 1946-12-28 09:00:00 TS -23.2125 -168.819 main 1110 1110 P________PP___ SH041947 -23.2150 -168.822 -1 -23.2150 -168.822 TC -23.2075 -168.812 2 17 147
1946358S12180 1947 79 SP MM NOT_NAMED 1946-12-28 12:00:00 TS -23.9000 -168.300 main 1201 1201 O________OO___ jtwc_sh SH041947 -23.9000 -168.300 -1 -23.9000 191.700 TC -23.9000 -168.300 2 16 146
1946358S12180 1947 79 SP MM NOT_NAMED 1946-12-28 15:00:00 TS -24.5548 -167.825 main 1293 1293 P________PP___ SH041947 -24.5646 -167.822 -1 -24.5646 -167.822 TC -24.5354 -167.832 2 16 145
1946358S12180 1947 79 SP MM NOT_NAMED 1946-12-28 18:00:00 TS -25.1821 -167.305 main 1374 1374 O________OP___ jtwc_sh SH041947 -25.2000 -167.300 -1 -25.2000 192.700 TC -25.1464 -167.315 2 16 141
1946358S12180 1947 79 SP MM NOT_NAMED 1946-12-28 21:00:00 TS -25.7811 -166.711 main 1459 1459 P________PP___ SH041947 -25.7919 -166.709 -1 -25.7919 -166.709 TC -25.7594 -166.715 2 17 136
1946358S12180 1947 79 SP MM NOT_NAMED 1946-12-29 00:00:00 TS -26.4000 -166.000 main 1549 1549 O________OO___ jtwc_sh SH041947 -26.4000 -166.000 -1 -26.4000 194.000 TC -26.4000 -166.000 2 19 133
1946358S12180 1947 79 SP MM NOT_NAMED 1946-12-29 03:00:00 TS -27.0888 -165.162 main 1655 1655 P________PP___ SH041947 -27.0770 -165.166 -1 -27.0770 -165.166 TC -27.1123 -165.155 2 21 131
1946358S12180 1947 79 SP MM NOT_NAMED 1946-12-29 06:00:00 TS -27.8164 -164.196 main 1771 1771 O________OP___ jtwc_sh SH041947 -27.8000 -164.200 -1 -27.8000 195.800 TC -27.8493 -164.187 2 23 129
1946358S12180 1947 79 SP MM NOT_NAMED 1946-12-29 09:00:00 TS -28.5669 -163.133 main 1902 1902 P________PP___ SH041947 -28.5571 -163.137 -1 -28.5571 -163.137 TC -28.5864 -163.125 2 24 128
1946358S12180 1947 79 SP MM NOT_NAMED 1946-12-29 12:00:00 TS -29.3000 -162.000 main 2019 2019 O________OO___ jtwc_sh SH041947 -29.3000 -162.000 -1 -29.3000 198.000 TC -29.3000 -162.000 2 24 125
1946358S12180 1947 79 SP MM NOT_NAMED 1946-12-29 15:00:00 TS -29.9718 -160.860 main 2069 2069 P________PP___ SH041947 -29.9713 -160.871 -1 -29.9713 -160.871 TC -29.9727 -160.838 2 24 123
1946358S12180 1947 79 SP MM NOT_NAMED 1946-12-29 18:00:00 TS -30.6027 -159.683 main 2137 2137 O________OP___ jtwc_sh SH041947 -30.6000 -159.700 -1 -30.6000 200.300 TC -30.6080 -159.648 2 24 121
1946358S12180 1947 79 SP MM NOT_NAMED 1946-12-29 21:00:00 TS -31.2099 -158.459 main 2210 2210 P________PP___ SH041947 -31.2077 -158.471 -1 -31.2077 -158.471 TC -31.2144 -158.434 2 24 119
1946358S12180 1947 79 SP MM NOT_NAMED 1946-12-30 00:00:00 TS -31.8000 -157.200 main 2294 O________OO___ jtwc_sh SH041947 -31.8000 -157.200 -1 -31.8000 202.800 TC -31.8000 -157.200 2 24 119

デジタル台風データ・検索

IBTrACS Databaseについて

本データベースは、米国NOAAが公開する1842年以降の世界の熱帯低気圧のベストトラックデータアーカイブInternational Best Track Archive for Climate Stewardship (IBTrACS)を、ウェブで閲覧しやすい形式に変換したものです。

最終更新日:2021-12-03